Time;durP1;ratioP1;P1;durP2;ratioP2;P2;SDS_P1;SDS_P2;PMS_P1;PMS_P2;Temp;Humidity;BMP_temperature;BMP_pressure;BME280_temperature;BME280_humidity;BME280_pressure;Samples;Min_cycle;Max_cycle;Signal;HPM_P1;HPM_P2
2022/10/05 00:01:28;;;;;;;17.47;7.00;;;9.10;99.90;;;;;;4773953;30;20210;-79
2022/10/05 00:04:18;;;;;;;15.47;7.30;;;9.20;99.90;;;;;;4764628;30;20219;-79
2022/10/05 00:06:57;;;;;;;20.03;7.77;;;9.20;99.90;;;;;;4757333;30;20213;-83
2022/10/05 00:09:24;;;;;;;14.47;6.63;;;9.30;99.90;;;;;;4772870;30;20207;-78
2022/10/05 00:11:51;;;;;;;12.17;7.00;;;9.20;99.90;;;;;;4756945;30;20209;-79
2022/10/05 00:14:18;;;;;;;11.70;6.73;;;9.30;99.90;;;;;;4757123;30;20574;-79
2022/10/05 00:16:45;;;;;;;14.43;6.87;;;9.20;99.90;;;;;;4756949;30;20623;-81
2022/10/05 00:19:36;;;;;;;17.20;7.30;;;9.20;99.90;;;;;;4756738;30;20232;-81
2022/10/05 00:22:15;;;;;;;12.17;6.60;;;9.10;99.90;;;;;;4756802;30;20831;-81
2022/10/05 00:24:44;;;;;;;16.43;7.23;;;9.20;99.90;;;;;;4772808;30;20199;-84
2022/10/05 00:27:23;;;;;;;14.13;7.23;;;9.10;99.90;;;;;;4786334;30;20298;-83
2022/10/05 00:29:52;;;;;;;12.40;6.77;;;9.10;99.90;;;;;;4756565;30;20218;-80
2022/10/05 00:32:19;;;;;;;14.00;6.87;;;9.10;99.90;;;;;;4756262;30;20232;-79
2022/10/05 00:34:47;;;;;;;12.23;6.53;;;9.10;99.90;;;;;;4772492;30;20197;-80
2022/10/05 00:37:14;;;;;;;15.53;7.10;;;9.10;99.90;;;;;;4757538;30;20219;-78
2022/10/05 00:39:41;;;;;;;11.10;6.53;;;9.20;99.90;;;;;;4756457;30;20259;-93
2022/10/05 00:42:31;;;;;;;12.97;6.47;;;9.20;99.90;;;;;;4757065;30;20623;-85
2022/10/05 00:45:19;;;;;;;12.47;6.50;;;9.20;99.90;;;;;;4757093;30;20205;-82
2022/10/05 00:47:49;;;;;;;12.33;6.97;;;9.20;99.90;;;;;;4757416;30;20307;-80
2022/10/05 00:50:28;;;;;;;11.67;6.47;;;9.20;99.90;;;;;;4786199;30;20577;-78
2022/10/05 00:52:58;;;;;;;13.70;6.50;;;9.20;99.90;;;;;;4772017;30;20211;-78
2022/10/05 00:55:24;;;;;;;13.93;6.60;;;9.20;99.90;;;;;;4756211;30;20535;-81
2022/10/05 00:57:57;;;;;;;16.50;6.83;;;9.30;99.90;;;;;;4756277;30;20213;-84
2022/10/05 01:00:26;;;;;;;15.77;6.80;;;9.30;99.90;;;;;;4756189;30;20228;-78
2022/10/05 01:03:18;;;;;;;13.67;6.90;;;9.20;99.90;;;;;;4755001;30;20209;-78
2022/10/05 01:06:22;;;;;;;13.47;6.60;;;9.30;99.90;;;;;;4785754;30;20299;-82
2022/10/05 01:09:12;;;;;;;11.80;6.30;;;9.30;99.90;;;;;;4771110;30;20215;-78
2022/10/05 01:12:02;;;;;;;12.73;6.60;;;9.40;99.90;;;;;;4772300;30;20211;-82
2022/10/05 01:15:19;;;;;;;14.60;6.87;;;9.30;99.90;;;;;;4755633;30;20676;-82
2022/10/05 01:18:23;;;;;;;16.67;6.50;;;9.30;99.90;;;;;;4755777;30;20214;-80
2022/10/05 01:21:17;;;;;;;19.33;6.67;;;9.30;99.90;;;;;;4755493;30;20243;-79
2022/10/05 01:24:38;;;;;;;13.07;6.40;;;9.40;99.90;;;;;;4755698;30;20215;-82
2022/10/05 01:27:47;;;;;;;13.27;6.60;;;9.50;99.90;;;;;;4771616;30;20201;-82
2022/10/05 01:30:19;;;;;;;10.53;6.33;;;9.50;99.90;;;;;;4753199;30;20642;-78
2022/10/05 01:33:16;;;;;;;10.77;6.20;;;9.50;99.90;;;;;;4771816;30;20197;-79
2022/10/05 01:36:28;;;;;;;15.93;6.20;;;9.50;99.90;;;;;;4755325;30;20205;-78
2022/10/05 01:38:55;;;;;;;11.53;6.00;;;9.50;99.90;;;;;;4737432;30;20733;-79
2022/10/05 01:41:36;;;;;;;10.93;5.93;;;9.50;99.90;;;;;;4736948;30;20240;-80
2022/10/05 01:44:22;;;;;;;13.37;6.47;;;9.60;99.90;;;;;;4736630;30;20206;-79
2022/10/05 01:47:06;;;;;;;11.00;6.17;;;9.70;99.90;;;;;;4751461;30;20233;-81
2022/10/05 01:49:42;;;;;;;13.67;6.33;;;9.70;99.90;;;;;;4752090;30;20319;-80
2022/10/05 01:52:46;;;;;;;12.37;6.30;;;9.70;99.90;;;;;;4736023;30;20667;-79
2022/10/05 01:55:30;;;;;;;11.57;6.00;;;9.60;99.90;;;;;;4720691;30;20230;-82
2022/10/05 01:57:59;;;;;;;10.87;6.00;;;9.60;99.90;;;;;;4733754;30;20206;-80
2022/10/05 02:01:21;;;;;;;12.93;6.67;;;9.60;99.90;;;;;;4748061;30;20761;-81
2022/10/05 02:04:01;;;;;;;14.83;6.27;;;9.60;99.90;;;;;;4751065;30;20624;-80
2022/10/05 02:06:36;;;;;;;14.23;6.43;;;9.80;99.90;;;;;;4736099;30;20209;-88
2022/10/05 02:09:25;;;;;;;15.37;6.37;;;9.60;99.90;;;;;;4736226;30;20216;-82
2022/10/05 02:11:59;;;;;;;14.20;6.47;;;9.70;99.90;;;;;;4738070;30;20217;-81
2022/10/05 02:14:44;;;;;;;12.37;6.47;;;9.70;99.90;;;;;;4788654;30;20358;-81
2022/10/05 02:17:20;;;;;;;12.23;6.47;;;9.70;99.90;;;;;;4772664;30;20208;-82
2022/10/05 02:19:58;;;;;;;12.50;6.63;;;9.80;99.90;;;;;;4774909;30;20207;-80
2022/10/05 02:22:27;;;;;;;11.63;6.60;;;9.60;99.90;;;;;;4794794;24;20709;-80
2022/10/05 02:25:07;;;;;;;12.80;6.30;;;9.50;99.90;;;;;;4788575;30;20208;-80
2022/10/05 02:27:51;;;;;;;11.63;6.50;;;9.50;99.90;;;;;;4772258;30;20658;-80
2022/10/05 02:30:19;;;;;;;12.87;7.13;;;9.50;99.90;;;;;;4787044;29;20218;-80
2022/10/05 02:33:06;;;;;;;12.40;6.70;;;9.60;99.90;;;;;;4788490;30;20239;-80
2022/10/05 02:35:33;;;;;;;15.27;6.90;;;9.60;99.90;;;;;;4788250;30;20208;-80
2022/10/05 02:38:16;;;;;;;13.73;6.80;;;9.50;99.90;;;;;;4789261;29;20215;-81
2022/10/05 02:41:32;;;;;;;12.17;6.73;;;9.60;99.90;;;;;;4789763;29;20227;-78
2022/10/05 02:44:10;;;;;;;13.53;6.67;;;9.50;99.90;;;;;;4718792;30;20217;-80
2022/10/05 02:46:49;;;;;;;12.73;6.53;;;9.30;99.90;;;;;;4732826;30;20608;-78
2022/10/05 02:49:37;;;;;;;12.60;7.40;;;9.30;99.90;;;;;;4732881;30;20363;-78
2022/10/05 02:52:25;;;;;;;11.70;6.43;;;9.20;99.90;;;;;;4732560;30;20597;-80
2022/10/05 02:55:11;;;;;;;13.13;7.13;;;9.20;99.90;;;;;;4732498;30;20728;-78
2022/10/05 02:57:47;;;;;;;12.20;6.73;;;9.20;99.90;;;;;;4732666;30;20660;-81
2022/10/05 03:00:22;;;;;;;13.83;7.43;;;9.10;99.90;;;;;;4732728;30;20730;-80
2022/10/05 03:03:07;;;;;;;16.97;7.93;;;9.10;99.90;;;;;;4732622;30;20285;-80
2022/10/05 03:05:53;;;;;;;15.50;7.50;;;9.20;99.90;;;;;;4732683;30;20207;-81
2022/10/05 03:08:54;;;;;;;17.43;8.50;;;9.10;99.90;;;;;;4718286;30;20249;-80
2022/10/05 03:11:29;;;;;;;17.47;7.87;;;9.10;99.90;;;;;;4732677;30;20546;-82
2022/10/05 03:14:17;;;;;;;17.07;8.37;;;9.10;99.90;;;;;;4732894;30;20220;-80
2022/10/05 03:16:46;;;;;;;16.47;8.40;;;9.00;99.90;;;;;;4718058;30;20717;-80
2022/10/05 03:20:00;;;;;;;;;;;;;;;;;;;;;
2022/10/05 03:23:14;;;;;;;15.03;8.40;;;9.10;99.90;;;;;;4785863;30;20243;-81
2022/10/05 03:26:22;;;;;;;18.80;9.03;;;9.00;99.90;;;;;;4748573;30;20236;-81
2022/10/05 03:29:16;;;;;;;18.57;8.67;;;8.90;99.90;;;;;;4749455;30;20695;-82
2022/10/05 03:31:50;;;;;;;17.17;8.30;;;9.00;99.90;;;;;;4747321;24;1147383;-85
2022/10/05 03:34:24;;;;;;;19.03;7.90;;;9.10;99.90;;;;;;4786819;29;20312;-79
2022/10/05 03:37:10;;;;;;;16.37;8.43;;;9.00;99.90;;;;;;4786299;29;20691;-81
2022/10/05 03:39:45;;;;;;;16.40;8.00;;;9.10;99.90;;;;;;4786460;29;20196;-83
2022/10/05 03:42:31;;;;;;;18.80;8.43;;;9.10;99.90;;;;;;4787160;30;20226;-82
2022/10/05 03:45:23;;;;;;;15.07;9.00;;;9.00;99.90;;;;;;4786433;30;20321;-81
2022/10/05 03:48:01;;;;;;;17.83;8.87;;;9.00;99.90;;;;;;4787735;30;20241;-81
2022/10/05 03:50:50;;;;;;;14.67;8.33;;;9.00;99.90;;;;;;4786852;30;20663;-81
2022/10/05 03:53:18;;;;;;;15.50;8.67;;;9.00;99.90;;;;;;4784116;30;20204;-88
2022/10/05 03:56:03;;;;;;;15.50;8.60;;;8.90;99.90;;;;;;4754271;30;20197;-80
2022/10/05 03:58:36;;;;;;;15.17;8.87;;;9.00;99.90;;;;;;4768594;30;20238;-80
2022/10/05 04:01:11;;;;;;;16.93;9.00;;;8.90;99.90;;;;;;4768752;30;20295;-80
2022/10/05 04:03:48;;;;;;;15.50;9.07;;;8.90;99.90;;;;;;4754157;30;20193;-80
2022/10/05 04:06:44;;;;;;;16.83;9.03;;;8.90;99.90;;;;;;4768753;30;20209;-81
2022/10/05 04:09:23;;;;;;;18.57;9.03;;;8.90;99.90;;;;;;4735409;30;20210;-81
2022/10/05 04:12:33;;;;;;;19.07;9.20;;;8.90;99.90;;;;;;4735202;30;20365;-81
2022/10/05 04:15:12;;;;;;;16.40;8.83;;;9.00;99.90;;;;;;4735492;30;20634;-80
2022/10/05 04:17:50;;;;;;;15.30;9.37;;;8.90;99.90;;;;;;4741060;30;20267;-83
2022/10/05 04:20:32;;;;;;;15.97;8.70;;;9.00;99.90;;;;;;4738502;30;20663;-82
2022/10/05 04:23:04;;;;;;;19.20;9.03;;;8.90;99.90;;;;;;4738549;30;20296;-81
2022/10/05 04:25:44;;;;;;;16.33;8.40;;;8.90;99.90;;;;;;4738498;30;20696;-82
2022/10/05 04:28:30;;;;;;;20.83;9.07;;;8.90;99.90;;;;;;4738414;30;20213;-77
2022/10/05 04:31:02;;;;;;;14.40;8.47;;;9.00;99.90;;;;;;4737876;30;20245;-78
2022/10/05 04:33:31;;;;;;;18.53;8.80;;;9.00;99.90;;;;;;4752828;30;20327;-84
2022/10/05 04:36:16;;;;;;;19.47;9.47;;;9.00;99.90;;;;;;4752824;30;20235;-87
2022/10/05 04:39:04;;;;;;;18.43;8.60;;;9.00;99.90;;;;;;4752742;30;20244;-85
2022/10/05 04:41:47;;;;;;;16.50;8.90;;;8.90;99.90;;;;;;4739344;30;20236;-87
2022/10/05 04:44:42;;;;;;;18.80;9.17;;;9.00;99.90;;;;;;4739873;30;20208;-80
2022/10/05 04:47:23;;;;;;;14.23;8.93;;;9.00;99.90;;;;;;4773490;30;20265;-81
2022/10/05 04:50:24;;;;;;;18.20;8.90;;;9.00;99.90;;;;;;4772392;30;20561;-83
2022/10/05 04:53:09;;;;;;;20.17;8.70;;;8.90;99.90;;;;;;4772331;30;20219;-81
2022/10/05 04:56:04;;;;;;;16.83;9.00;;;8.90;99.90;;;;;;4775087;30;20207;-81
2022/10/05 04:58:43;;;;;;;17.50;9.60;;;8.90;99.90;;;;;;4773907;30;20211;-79
2022/10/05 05:01:40;;;;;;;22.03;9.23;;;8.90;99.90;;;;;;4771049;30;20232;-83
2022/10/05 05:04:55;;;;;;;19.30;9.67;;;8.90;99.90;;;;;;4756363;30;20594;-80
2022/10/05 05:07:46;;;;;;;17.73;9.77;;;8.80;99.90;;;;;;4734590;30;20649;-80
2022/10/05 05:10:43;;;;;;;15.60;9.33;;;8.80;99.90;;;;;;4720031;30;20218;-79
2022/10/05 05:13:28;;;;;;;16.97;9.20;;;8.80;99.90;;;;;;4705749;30;20660;-79
2022/10/05 05:16:28;;;;;;;18.50;9.63;;;9.00;99.90;;;;;;4719816;30;20214;-83
2022/10/05 05:19:16;;;;;;;19.47;10.37;;;8.90;99.90;;;;;;4720490;30;20213;-79
2022/10/05 05:21:57;;;;;;;17.73;9.33;;;8.80;99.90;;;;;;4719559;30;20234;-81
2022/10/05 05:24:35;;;;;;;21.20;9.87;;;8.90;99.90;;;;;;4717945;30;20737;-83
2022/10/05 05:27:19;;;;;;;18.40;9.77;;;8.90;99.90;;;;;;4715967;30;20624;-80
2022/10/05 05:33:06;;;;;;;19.50;10.30;;;8.90;99.90;;;;;;4763735;30;20299;-80
2022/10/05 05:38:44;;;;;;;18.10;10.07;;;8.90;99.90;;;;;;4764684;30;20291;-80
2022/10/05 05:41:14;;;;;;;19.53;10.00;;;8.90;99.90;;;;;;4766932;30;20221;-83
2022/10/05 05:43:50;;;;;;;19.37;10.17;;;9.00;99.90;;;;;;4752573;30;20283;-83
2022/10/05 05:46:21;;;;;;;18.40;9.87;;;9.00;99.90;;;;;;4751105;30;20626;-81
2022/10/05 05:49:49;;;;;;;18.60;9.07;;;9.10;99.90;;;;;;4759740;30;20238;-78
2022/10/05 05:52:27;;;;;;;20.70;10.73;;;9.10;99.90;;;;;;4752678;30;20208;-80
2022/10/05 05:55:00;;;;;;;17.50;9.50;;;9.20;99.90;;;;;;4767065;30;20235;-81
2022/10/05 05:57:49;;;;;;;15.37;9.50;;;9.20;99.90;;;;;;4752761;30;20214;-80
2022/10/05 06:00:30;;;;;;;22.07;9.90;;;9.30;99.90;;;;;;4767243;30;20266;-77
2022/10/05 06:03:27;;;;;;;18.63;9.70;;;9.30;99.90;;;;;;4784660;30;20216;-81
2022/10/05 06:05:58;;;;;;;17.83;9.20;;;9.30;99.90;;;;;;4739476;30;20235;-84
2022/10/05 06:08:52;;;;;;;17.60;8.93;;;9.40;99.90;;;;;;4736421;30;20734;-82
2022/10/05 06:11:26;;;;;;;16.50;9.00;;;9.50;99.90;;;;;;4753297;30;20334;-80
2022/10/05 06:13:58;;;;;;;15.20;8.53;;;9.50;99.90;;;;;;4737043;30;20250;-79
2022/10/05 06:16:51;;;;;;;18.53;9.33;;;9.60;99.90;;;;;;4750878;30;20223;-79
2022/10/05 06:19:33;;;;;;;17.20;8.70;;;9.70;99.90;;;;;;4736085;30;20224;-78
2022/10/05 06:22:11;;;;;;;16.30;8.97;;;9.80;99.90;;;;;;4727002;30;20234;-78
2022/10/05 06:24:51;;;;;;;18.53;8.90;;;9.80;99.90;;;;;;4716454;30;20307;-80
2022/10/05 06:28:11;;;;;;;21.87;8.57;;;9.80;99.90;;;;;;4713944;30;20248;-80
2022/10/05 06:31:01;;;;;;;17.67;8.33;;;9.80;99.90;;;;;;4718495;30;20841;-78
2022/10/05 06:33:50;;;;;;;15.40;8.30;;;9.90;99.90;;;;;;4732634;30;20206;-79
2022/10/05 06:36:39;;;;;;;17.10;8.20;;;10.00;99.90;;;;;;4732261;30;20253;-79
2022/10/05 06:39:20;;;;;;;14.07;7.73;;;10.10;99.90;;;;;;4732698;30;20760;-78
2022/10/05 06:42:12;;;;;;;13.80;7.73;;;10.20;99.90;;;;;;4718582;30;20238;-80
2022/10/05 06:45:06;;;;;;;15.17;7.87;;;10.20;99.90;;;;;;4761953;24;20706;-78
2022/10/05 06:48:04;;;;;;;14.67;7.47;;;10.20;99.90;;;;;;4765302;30;20322;-79
2022/10/05 06:50:49;;;;;;;17.00;7.77;;;10.30;99.90;;;;;;4767268;30;20303;-79
2022/10/05 06:53:26;;;;;;;14.17;6.93;;;10.40;99.90;;;;;;4755904;30;20561;-80
2022/10/05 06:56:28;;;;;;;14.33;7.57;;;10.50;99.90;;;;;;4751008;30;20735;-78
2022/10/05 06:59:02;;;;;;;13.33;7.47;;;10.50;99.90;;;;;;4727143;30;20214;-77
2022/10/05 07:01:58;;;;;;;13.43;7.63;;;10.60;99.90;;;;;;4724568;30;20274;-77
2022/10/05 07:05:14;;;;;;;13.63;6.60;;;10.70;99.90;;;;;;4735487;30;20230;-80
2022/10/05 07:08:00;;;;;;;12.63;7.07;;;10.70;99.90;;;;;;4722005;30;20220;-78
2022/10/05 07:10:31;;;;;;;13.57;7.07;;;10.70;99.90;;;;;;4716138;30;20321;-77
2022/10/05 07:13:24;;;;;;;12.23;6.77;;;10.80;99.90;;;;;;4717017;30;20657;-80
2022/10/05 07:16:12;;;;;;;12.83;6.30;;;10.90;99.90;;;;;;4701179;30;20271;-76
2022/10/05 07:18:49;;;;;;;16.40;6.77;;;11.10;99.90;;;;;;4729481;30;20277;-77
2022/10/05 07:21:34;;;;;;;16.40;6.07;;;11.00;99.90;;;;;;4723281;30;20234;-80
2022/10/05 07:24:39;;;;;;;13.70;6.50;;;11.00;99.90;;;;;;4714654;30;20206;-77
2022/10/05 07:27:29;;;;;;;11.73;6.50;;;11.10;99.90;;;;;;4696401;30;20224;-81
2022/10/05 07:30:09;;;;;;;12.20;6.23;;;11.20;99.90;;;;;;4673816;30;20237;-79
2022/10/05 07:33:08;;;;;;;16.90;6.33;;;11.30;99.90;;;;;;4680571;30;20227;-76
2022/10/05 07:39:45;;;;;;;12.93;5.90;;;11.40;99.90;;;;;;4679156;30;20208;-77
2022/10/05 07:43:05;;;;;;;13.67;5.80;;;11.50;99.90;;;;;;4679453;30;20243;-79
2022/10/05 07:45:59;;;;;;;10.97;5.60;;;11.80;99.90;;;;;;4680266;30;20275;-78
2022/10/05 07:49:07;;;;;;;12.37;6.40;;;11.90;99.90;;;;;;4665310;30;20291;-80
2022/10/05 07:51:44;;;;;;;14.40;6.67;;;11.90;99.90;;;;;;4683205;30;20299;-78
2022/10/05 07:54:35;;;;;;;12.87;6.07;;;12.10;99.90;;;;;;4697823;30;21060;-77
2022/10/05 07:57:26;;;;;;;12.10;6.13;;;12.20;99.90;;;;;;4697442;30;20282;-77
2022/10/05 07:59:57;;;;;;;12.20;6.30;;;12.20;99.90;;;;;;4667049;30;20559;-79
2022/10/05 08:02:33;;;;;;;12.43;6.00;;;12.20;99.90;;;;;;4674591;30;20245;-79
2022/10/05 08:05:20;;;;;;;10.53;6.00;;;12.40;99.90;;;;;;4692570;30;20620;-75
2022/10/05 08:07:53;;;;;;;13.73;5.60;;;12.40;99.90;;;;;;4717200;30;20316;-79
2022/10/05 08:10:24;;;;;;;9.93;5.90;;;12.40;99.90;;;;;;4732374;30;20217;-79
2022/10/05 08:13:28;;;;;;;11.07;5.80;;;12.40;99.90;;;;;;4763205;30;20207;-77
2022/10/05 08:16:01;;;;;;;10.73;5.33;;;12.60;99.90;;;;;;4758752;30;20211;-77
2022/10/05 08:18:59;;;;;;;12.70;5.60;;;12.90;99.90;;;;;;4753820;30;20206;-75
2022/10/05 08:21:42;;;;;;;13.57;5.40;;;13.10;99.90;;;;;;4737323;30;20225;-75
2022/10/05 08:24:32;;;;;;;11.60;5.47;;;13.20;99.90;;;;;;4751938;30;20206;-72
2022/10/05 08:27:11;;;;;;;10.60;5.10;;;13.30;99.90;;;;;;4763142;30;20202;-72
2022/10/05 08:29:47;;;;;;;9.90;4.73;;;13.50;99.90;;;;;;4750008;30;20584;-72
2022/10/05 08:32:23;;;;;;;11.90;5.30;;;13.60;99.90;;;;;;4749867;30;20631;-77
2022/10/05 08:34:56;;;;;;;13.77;5.43;;;13.90;99.90;;;;;;4751856;30;20198;-77
2022/10/05 08:37:38;;;;;;;8.40;4.53;;;14.00;99.90;;;;;;4758839;30;20246;-79
2022/10/05 08:40:32;;;;;;;8.63;4.40;;;14.20;99.90;;;;;;4751335;30;20570;-73
2022/10/05 08:43:09;;;;;;;10.67;4.80;;;14.30;99.90;;;;;;4754585;30;20233;-77
2022/10/05 08:45:50;;;;;;;10.30;4.43;;;14.50;99.90;;;;;;4789950;30;20215;-77
2022/10/05 08:48:46;;;;;;;10.20;4.50;;;14.50;99.90;;;;;;4779532;29;20205;-74
2022/10/05 08:51:47;;;;;;;10.20;4.73;;;14.70;99.90;;;;;;4734960;30;20729;-74
2022/10/05 08:54:40;;;;;;;11.93;4.80;;;14.70;99.90;;;;;;4764046;30;20236;-76
2022/10/05 08:57:26;;;;;;;9.73;4.50;;;14.60;99.90;;;;;;4754524;30;20290;-73
2022/10/05 09:00:15;;;;;;;9.07;4.60;;;14.90;99.90;;;;;;4775547;30;20228;-78
2022/10/05 09:03:07;;;;;;;9.53;4.80;;;14.70;99.90;;;;;;4773981;30;20258;-78
2022/10/05 09:05:46;;;;;;;8.90;4.50;;;14.70;99.90;;;;;;4770346;29;20582;-79
2022/10/05 09:08:40;;;;;;;9.23;4.40;;;14.70;99.90;;;;;;4761840;30;20248;-76
2022/10/05 09:11:30;;;;;;;9.60;4.63;;;14.80;99.90;;;;;;4756212;30;20211;-78
2022/10/05 09:14:03;;;;;;;10.43;4.17;;;14.70;99.90;;;;;;4755770;30;20204;-76
2022/10/05 09:16:56;;;;;;;11.70;4.00;;;14.70;99.90;;;;;;4762414;30;20335;-75
2022/10/05 09:19:23;;;;;;;9.87;4.90;;;14.70;99.90;;;;;;4758070;30;20216;-79
2022/10/05 09:22:37;;;;;;;7.03;4.30;;;14.90;99.90;;;;;;4750167;30;20234;-76
2022/10/05 09:25:22;;;;;;;8.77;4.43;;;15.10;99.90;;;;;;4738183;30;20209;-79
2022/10/05 09:27:54;;;;;;;9.90;4.70;;;15.30;99.90;;;;;;4758799;30;20567;-78
2022/10/05 09:30:47;;;;;;;9.80;4.43;;;15.50;99.90;;;;;;4761966;30;20209;-76
2022/10/05 09:33:58;;;;;;;11.53;4.90;;;15.80;99.90;;;;;;4768784;30;20614;-78
2022/10/05 09:37:12;;;;;;;7.60;4.90;;;16.00;99.90;;;;;;4771186;30;20228;-77
2022/10/05 09:39:48;;;;;;;12.60;4.80;;;16.10;99.90;;;;;;4762584;30;20189;-85
2022/10/05 09:42:21;;;;;;;9.93;4.50;;;15.90;99.90;;;;;;4754387;30;20244;-78
2022/10/05 09:45:36;;;;;;;10.27;4.87;;;15.80;99.90;;;;;;4751031;30;20338;-78
2022/10/05 09:48:22;;;;;;;9.63;4.47;;;15.70;99.90;;;;;;4748679;30;20209;-82
2022/10/05 09:51:16;;;;;;;8.87;4.50;;;15.60;99.90;;;;;;4748238;30;20204;-82
2022/10/05 09:54:14;;;;;;;10.23;4.17;;;15.40;99.90;;;;;;4755213;30;20308;-77
2022/10/05 09:56:59;;;;;;;12.53;3.90;;;15.50;99.90;;;;;;4771142;30;20207;-82
2022/10/05 10:00:07;;;;;;;11.70;4.70;;;15.80;99.90;;;;;;4771051;30;20205;-84
2022/10/05 10:02:58;;;;;;;12.10;4.00;;;16.10;99.90;;;;;;4684488;30;20231;-79
2022/10/05 10:06:04;;;;;;;9.33;4.17;;;16.10;99.90;;;;;;4696973;30;20670;-74
2022/10/05 10:09:03;;;;;;;10.90;4.00;;;16.30;99.90;;;;;;4696944;30;20770;-77
2022/10/05 10:11:48;;;;;;;8.27;4.27;;;16.30;99.90;;;;;;4635527;30;20210;-78
2022/10/05 10:14:24;;;;;;;8.43;3.97;;;16.70;99.90;;;;;;4635197;30;20300;-78
2022/10/05 10:17:01;;;;;;;8.13;4.17;;;16.80;99.90;;;;;;4606233;30;20262;-77
2022/10/05 10:19:51;;;;;;;7.43;3.90;;;16.80;99.90;;;;;;4634017;30;20215;-73
2022/10/05 10:22:48;;;;;;;7.63;3.97;;;16.80;99.90;;;;;;4632317;30;20704;-79
2022/10/05 10:25:47;;;;;;;7.30;4.20;;;17.20;99.90;;;;;;4636531;30;20214;-75
2022/10/05 10:28:33;;;;;;;8.87;4.10;;;17.60;99.90;;;;;;4619268;30;20213;-75
2022/10/05 10:31:25;;;;;;;7.17;3.93;;;18.30;99.90;;;;;;4634229;30;20309;-75
2022/10/05 10:34:08;;;;;;;9.20;3.70;;;18.40;99.90;;;;;;4611721;30;20209;-74
2022/10/05 10:36:55;;;;;;;6.70;3.80;;;18.90;99.90;;;;;;4632418;30;20291;-78
2022/10/05 10:39:37;;;;;;;7.50;3.63;;;19.30;99.90;;;;;;4656375;30;20220;-84
2022/10/05 10:42:20;;;;;;;10.47;3.97;;;19.30;99.90;;;;;;4691082;30;20246;-79
2022/10/05 10:45:13;;;;;;;8.67;3.90;;;19.10;99.90;;;;;;4682998;30;20263;-79
2022/10/05 10:47:56;;;;;;;7.70;3.73;;;18.70;99.90;;;;;;4724220;30;20220;-74
2022/10/05 10:50:32;;;;;;;6.20;3.80;;;18.60;99.90;;;;;;4751917;30;20209;-78
2022/10/05 10:53:22;;;;;;;9.03;3.90;;;18.60;99.90;;;;;;4756691;30;20216;-76
2022/10/05 10:56:18;;;;;;;6.50;3.80;;;18.90;99.90;;;;;;4763197;30;20590;-77
2022/10/05 10:59:00;;;;;;;6.93;3.77;;;19.30;99.90;;;;;;4743628;30;20205;-74
2022/10/05 11:01:48;;;;;;;7.63;4.10;;;19.10;99.90;;;;;;4748785;30;20205;-73
2022/10/05 11:04:40;;;;;;;9.23;4.23;;;19.10;99.90;;;;;;4759565;30;20276;-73
2022/10/05 11:07:26;;;;;;;8.67;4.20;;;19.30;99.90;;;;;;4765751;30;20307;-74
2022/10/05 11:10:11;;;;;;;5.83;4.13;;;19.50;99.90;;;;;;4764401;30;20573;-77
2022/10/05 11:13:15;;;;;;;6.67;3.83;;;20.00;99.90;;;;;;4752752;30;20721;-78
2022/10/05 11:16:05;;;;;;;7.73;3.47;;;20.00;99.90;;;;;;4769516;30;20208;-81
2022/10/05 11:19:15;;;;;;;6.30;3.53;;;19.70;99.90;;;;;;4739781;24;20233;-78
2022/10/05 11:21:59;;;;;;;6.97;3.83;;;19.70;99.90;;;;;;4749934;30;20204;-84
2022/10/05 11:24:37;;;;;;;6.67;3.60;;;19.90;99.90;;;;;;4766392;30;20785;-81
2022/10/05 11:27:45;;;;;;;9.57;3.80;;;19.60;99.90;;;;;;4763839;30;20205;-84
2022/10/05 11:30:42;;;;;;;8.17;4.00;;;19.50;99.90;;;;;;4738517;30;20201;-76
2022/10/05 11:33:59;;;;;;;7.63;3.60;;;19.10;99.90;;;;;;4745427;30;20211;-75
2022/10/05 11:36:45;;;;;;;10.87;3.90;;;19.80;99.90;;;;;;4703783;30;20298;-80
2022/10/05 11:39:34;;;;;;;13.60;4.30;;;20.30;99.90;;;;;;4718627;30;20259;-79
2022/10/05 11:42:49;;;;;;;7.00;3.70;;;20.00;99.90;;;;;;4700903;30;20206;-77
2022/10/05 11:45:26;;;;;;;8.80;3.63;;;20.20;99.90;;;;;;4692620;30;20294;-78
2022/10/05 11:48:26;;;;;;;7.97;3.07;;;20.50;99.90;;;;;;4710530;30;20207;-80
2022/10/05 11:51:37;;;;;;;7.47;3.33;;;20.60;99.90;;;;;;4697047;30;20713;-81
2022/10/05 11:54:30;;;;;;;5.87;3.10;;;20.80;99.90;;;;;;4710368;30;20274;-79
2022/10/05 11:57:39;;;;;;;7.20;3.53;;;20.50;99.90;;;;;;4693278;30;20569;-80
2022/10/05 12:00:19;;;;;;;8.30;3.67;;;20.40;99.90;;;;;;4647439;30;20220;-80
2022/10/05 12:02:49;;;;;;;7.53;3.23;;;20.50;99.90;;;;;;4648234;30;20236;-80
2022/10/05 12:05:53;;;;;;;6.33;3.27;;;20.70;99.90;;;;;;4663407;30;20269;-80
2022/10/05 12:08:54;;;;;;;5.77;3.27;;;20.80;99.90;;;;;;4656485;30;20603;-81
2022/10/05 12:11:38;;;;;;;6.33;2.90;;;20.70;99.90;;;;;;4648209;30;20213;-76
2022/10/05 12:14:10;;;;;;;5.07;3.37;;;20.70;99.90;;;;;;4691161;30;20227;-81
2022/10/05 12:16:47;;;;;;;9.43;3.90;;;20.60;99.90;;;;;;4681833;30;20261;-77
2022/10/05 12:19:27;;;;;;;6.43;3.40;;;20.30;99.90;;;;;;4684678;30;20232;-77
2022/10/05 12:22:08;;;;;;;7.93;3.60;;;19.80;99.90;;;;;;4671619;30;20219;-81
2022/10/05 12:24:35;;;;;;;7.67;3.63;;;19.60;99.90;;;;;;4678101;30;20327;-77
2022/10/05 12:27:14;;;;;;;7.20;3.80;;;19.20;99.90;;;;;;4664271;30;20216;-83
2022/10/05 12:29:49;;;;;;;7.87;3.90;;;19.10;99.90;;;;;;4679404;30;20208;-76
2022/10/05 12:32:20;;;;;;;10.20;4.13;;;19.20;99.90;;;;;;4679627;30;20208;-82
2022/10/05 12:35:13;;;;;;;7.23;3.73;;;19.30;99.90;;;;;;4679642;30;20205;-76
2022/10/05 12:38:15;;;;;;;7.40;4.23;;;19.50;99.90;;;;;;4717088;30;20206;-80
2022/10/05 12:40:45;;;;;;;7.97;3.73;;;19.40;99.90;;;;;;4723347;30;20549;-76
2022/10/05 12:43:15;;;;;;;7.67;3.63;;;19.20;99.90;;;;;;4735024;30;20236;-80
2022/10/05 12:45:55;;;;;;;6.10;3.73;;;19.00;99.90;;;;;;4734940;30;20206;-79
2022/10/05 12:48:51;;;;;;;10.03;4.30;;;18.80;99.90;;;;;;4753738;30;20216;-79
2022/10/05 12:51:28;;;;;;;7.97;4.20;;;18.30;99.90;;;;;;4734601;30;20206;-79
2022/10/05 12:54:32;;;;;;;8.83;4.20;;;18.30;99.90;;;;;;4737815;30;20205;-75
2022/10/05 12:57:02;;;;;;;9.23;4.17;;;18.10;99.90;;;;;;4726282;30;20294;-76
2022/10/05 12:59:41;;;;;;;10.33;4.10;;;18.10;99.90;;;;;;4745609;30;20264;-81
2022/10/05 13:02:24;;;;;;;8.40;4.60;;;18.10;99.90;;;;;;4742305;30;20655;-81
2022/10/05 13:05:13;;;;;;;8.13;4.27;;;18.20;99.90;;;;;;4751269;30;20213;-82
2022/10/05 13:08:04;;;;;;;6.67;3.80;;;18.40;99.90;;;;;;4734700;30;20195;-80
2022/10/05 13:10:41;;;;;;;6.60;3.80;;;18.40;99.90;;;;;;4738663;30;20213;-77
2022/10/05 13:13:21;;;;;;;11.03;4.13;;;18.10;99.90;;;;;;4737813;30;20237;-78
2022/10/05 13:16:07;;;;;;;5.60;3.53;;;17.90;99.90;;;;;;4736488;30;20201;-76
2022/10/05 13:18:53;;;;;;;7.60;4.13;;;18.00;99.90;;;;;;4739384;30;20332;-76
2022/10/05 13:21:29;;;;;;;7.77;3.90;;;17.90;99.90;;;;;;4734609;30;20560;-77
2022/10/05 13:24:13;;;;;;;7.20;3.80;;;17.80;99.90;;;;;;4756302;30;20222;-78
2022/10/05 13:26:58;;;;;;;7.80;3.60;;;17.70;99.90;;;;;;4740013;30;20267;-80
2022/10/05 13:29:33;;;;;;;7.23;4.00;;;17.80;99.90;;;;;;4750435;30;20205;-78
2022/10/05 13:32:16;;;;;;;8.53;3.97;;;17.90;99.90;;;;;;4734544;30;20202;-78
2022/10/05 13:35:12;;;;;;;7.60;4.13;;;18.00;99.90;;;;;;4725766;30;20209;-74
2022/10/05 13:38:01;;;;;;;7.13;3.97;;;18.00;99.90;;;;;;4733313;30;20254;-76
2022/10/05 13:40:52;;;;;;;11.90;4.40;;;18.10;99.90;;;;;;4750290;30;20224;-78
2022/10/05 13:43:48;;;;;;;8.00;3.93;;;18.00;99.90;;;;;;4749632;30;20609;-80
2022/10/05 13:46:41;;;;;;;7.53;3.60;;;17.80;99.90;;;;;;4746761;30;20202;-80
2022/10/05 13:49:17;;;;;;;9.20;3.97;;;17.70;99.90;;;;;;4736503;30;20656;-80
2022/10/05 13:52:07;;;;;;;8.70;4.20;;;17.70;99.90;;;;;;4737404;30;20201;-83
2022/10/05 13:55:04;;;;;;;11.10;4.30;;;17.60;99.90;;;;;;4734358;30;20239;-82
2022/10/05 13:57:31;;;;;;;9.33;3.70;;;17.50;99.90;;;;;;4733944;30;20205;-75
2022/10/05 14:00:24;;;;;;;9.10;4.27;;;17.50;99.90;;;;;;4735201;30;20210;-75
2022/10/05 14:02:55;;;;;;;6.50;4.10;;;17.70;99.90;;;;;;4735730;30;20233;-76
2022/10/05 14:05:28;;;;;;;7.97;4.23;;;17.70;99.90;;;;;;4749934;30;20211;-77
2022/10/05 14:08:04;;;;;;;7.03;3.90;;;17.50;99.90;;;;;;4735366;30;20206;-78
2022/10/05 14:10:37;;;;;;;10.47;3.87;;;17.30;99.90;;;;;;4733603;30;20197;-81
2022/10/05 14:13:18;;;;;;;6.30;3.90;;;17.30;99.90;;;;;;4744499;30;20202;-78
2022/10/05 14:16:17;;;;;;;9.83;3.97;;;17.30;99.90;;;;;;4750611;30;20210;-80
2022/10/05 14:19:04;;;;;;;10.67;3.97;;;17.20;99.90;;;;;;4734445;30;20245;-80
2022/10/05 14:21:59;;;;;;;7.43;4.23;;;17.30;99.90;;;;;;4700188;30;20635;-79
2022/10/05 14:24:35;;;;;;;8.43;4.60;;;17.40;99.90;;;;;;4713097;30;20231;-80
2022/10/05 14:27:27;;;;;;;8.53;4.30;;;17.20;99.90;;;;;;4706609;30;20324;-79
2022/10/05 14:30:01;;;;;;;6.13;4.00;;;17.20;99.90;;;;;;4709671;30;20218;-81
2022/10/05 14:32:42;;;;;;;7.03;3.97;;;17.30;99.90;;;;;;4707299;30;20309;-76